Time;durP1;ratioP1;P1;durP2;ratioP2;P2;SDS_P1;SDS_P2;PMS_P1;PMS_P2;Temp;Humidity;BMP_temperature;BMP_pressure;BME280_temperature;BME280_humidity;BME280_pressure;Samples;Min_cycle;Max_cycle;Signal;HPM_P1;HPM_P2
2022/09/15 00:00:56;;;;;;;3.90;2.90;;;24.40;67.20;;;;;;5033412;28;20442;-51
2022/09/15 00:03:22;;;;;;;4.10;3.03;;;24.50;67.20;;;;;;5037257;28;20193;-51
2022/09/15 00:05:48;;;;;;;3.40;2.60;;;24.50;67.20;;;;;;5040823;28;20192;-47
2022/09/15 00:08:14;;;;;;;3.13;2.50;;;24.50;67.10;;;;;;5038832;28;20440;-51
2022/09/15 00:10:49;;;;;;;3.83;2.90;;;24.60;67.10;;;;;;5038537;28;20454;-49
2022/09/15 00:13:15;;;;;;;2.60;2.40;;;24.60;67.00;;;;;;5041629;28;20196;-49
2022/09/15 00:15:40;;;;;;;2.33;2.13;;;24.70;67.20;;;;;;5033167;28;20533;-47
2022/09/15 00:18:06;;;;;;;5.10;2.20;;;24.70;67.00;;;;;;5045976;28;21011;-49
2022/09/15 00:20:32;;;;;;;4.00;3.00;;;24.70;66.80;;;;;;5033138;28;20197;-48
2022/09/15 00:22:58;;;;;;;7.07;2.90;;;24.70;66.70;;;;;;5046309;28;20804;-47
2022/09/15 00:25:23;;;;;;;2.60;2.40;;;24.70;66.50;;;;;;5049162;28;20220;-47
2022/09/15 00:27:49;;;;;;;7.20;2.57;;;24.80;66.70;;;;;;5035501;28;20743;-47
2022/09/15 00:30:15;;;;;;;2.87;2.57;;;24.80;66.50;;;;;;5041832;28;20548;-49
2022/09/15 00:32:40;;;;;;;3.43;2.30;;;24.80;66.40;;;;;;5043568;28;20652;-51
2022/09/15 00:35:06;;;;;;;3.70;2.70;;;24.80;66.60;;;;;;5049494;28;20443;-47
2022/09/15 00:37:32;;;;;;;4.83;2.43;;;24.80;66.40;;;;;;5042890;28;20192;-48
2022/09/15 00:39:58;;;;;;;2.97;2.53;;;24.90;66.40;;;;;;5033629;28;20607;-51
2022/09/15 00:42:24;;;;;;;4.70;2.50;;;24.90;66.30;;;;;;5042371;28;20447;-52
2022/09/15 00:44:58;;;;;;;3.03;2.73;;;24.90;66.20;;;;;;5035101;28;20201;-49
2022/09/15 00:47:36;;;;;;;6.67;3.00;;;24.90;66.00;;;;;;5042787;28;20200;-48
2022/09/15 00:50:06;;;;;;;4.80;2.40;;;24.80;66.10;;;;;;5042791;28;20489;-48
2022/09/15 00:52:43;;;;;;;4.10;2.60;;;24.80;66.10;;;;;;5044724;28;20455;-48
2022/09/15 00:55:13;;;;;;;4.63;2.50;;;24.80;66.10;;;;;;5035923;28;20930;-47
2022/09/15 00:57:47;;;;;;;4.90;2.43;;;24.70;66.10;;;;;;5038035;28;20446;-49
2022/09/15 01:00:15;;;;;;;5.03;2.90;;;24.70;66.00;;;;;;5039908;28;20562;-48
2022/09/15 01:02:43;;;;;;;2.73;2.50;;;24.70;66.20;;;;;;5039237;28;20443;-47
2022/09/15 01:05:11;;;;;;;2.43;2.23;;;24.70;66.60;;;;;;5034357;28;20436;-48
2022/09/15 01:07:42;;;;;;;2.70;2.50;;;24.70;66.60;;;;;;5031732;28;20452;-47
2022/09/15 01:10:16;;;;;;;3.07;2.10;;;24.60;66.50;;;;;;5044100;28;20844;-49
2022/09/15 01:12:42;;;;;;;3.50;2.43;;;24.70;66.70;;;;;;5040961;28;20446;-48
2022/09/15 01:15:08;;;;;;;2.63;2.40;;;24.60;66.70;;;;;;5032528;28;21410;-47
2022/09/15 01:18:17;;;;;;;3.30;2.57;;;24.70;66.80;;;;;;5040664;28;20196;-47
2022/09/15 01:20:58;;;;;;;5.03;2.90;;;24.70;66.70;;;;;;5032942;28;20482;-51
2022/09/15 01:23:44;;;;;;;3.33;2.67;;;24.60;66.60;;;;;;5050266;28;20454;-51
2022/09/15 01:26:28;;;;;;;7.43;2.60;;;24.60;66.70;;;;;;5043067;28;20804;-46
2022/09/15 01:29:31;;;;;;;6.37;2.50;;;24.60;66.70;;;;;;5038985;28;20498;-47
2022/09/15 01:35:30;;;;;;;2.60;2.40;;;24.40;67.10;;;;;;5028954;28;20581;-47
2022/09/15 01:38:14;;;;;;;2.50;2.30;;;24.30;67.50;;;;;;5031632;28;20454;-52
2022/09/15 01:41:12;;;;;;;4.80;2.63;;;24.20;68.00;;;;;;5042968;28;20486;-47
2022/09/15 01:43:52;;;;;;;2.93;2.63;;;24.10;68.00;;;;;;5027979;28;20450;-48
2022/09/15 01:46:20;;;;;;;3.50;2.30;;;24.10;68.40;;;;;;5043764;28;20435;-48
2022/09/15 01:48:48;;;;;;;2.90;2.17;;;24.10;68.00;;;;;;5042114;28;20475;-48
2022/09/15 01:51:15;;;;;;;2.60;2.40;;;24.00;68.20;;;;;;5037329;28;20525;-46
2022/09/15 01:53:40;;;;;;;3.60;2.13;;;24.00;68.70;;;;;;5034753;28;20442;-47
2022/09/15 01:56:09;;;;;;;3.90;2.50;;;24.10;68.50;;;;;;5040224;28;20854;-48
2022/09/15 01:58:38;;;;;;;2.17;2.07;;;24.10;68.20;;;;;;5035067;28;20237;-46
2022/09/15 02:01:07;;;;;;;2.30;2.10;;;24.20;67.90;;;;;;5040843;28;20485;-47
2022/09/15 02:04:06;;;;;;;5.57;2.20;;;24.20;67.50;;;;;;5049244;28;21220;-47
2022/09/15 02:07:10;;;;;;;6.57;2.03;;;24.20;67.50;;;;;;5032206;28;20500;-48
2022/09/15 02:10:10;;;;;;;2.20;1.83;;;24.20;67.20;;;;;;5044382;28;20454;-47
2022/09/15 02:13:05;;;;;;;4.70;2.30;;;24.20;66.90;;;;;;5032863;28;20444;-48
2022/09/15 02:15:41;;;;;;;4.63;1.93;;;24.30;67.10;;;;;;5032114;28;20475;-48
2022/09/15 02:18:08;;;;;;;2.07;1.87;;;24.30;66.90;;;;;;5036013;28;20529;-47
2022/09/15 02:20:48;;;;;;;3.33;2.07;;;24.20;66.60;;;;;;5042350;28;20975;-48
2022/09/15 02:23:26;;;;;;;1.67;1.53;;;24.30;66.60;;;;;;5047364;28;20571;-49
2022/09/15 02:26:03;;;;;;;4.70;1.90;;;24.20;66.60;;;;;;5048287;28;20486;-47
2022/09/15 02:28:35;;;;;;;3.27;1.70;;;24.20;66.50;;;;;;5036898;28;20507;-49
2022/09/15 02:31:04;;;;;;;4.03;1.90;;;24.10;66.50;;;;;;5048714;28;20438;-47
2022/09/15 02:33:34;;;;;;;2.50;2.10;;;24.20;67.50;;;;;;5039458;28;20963;-48
2022/09/15 02:36:01;;;;;;;3.17;1.70;;;24.10;66.20;;;;;;5037646;28;20448;-47
2022/09/15 02:38:33;;;;;;;2.63;2.10;;;24.10;66.20;;;;;;5033828;28;20483;-48
2022/09/15 02:41:00;;;;;;;2.80;1.77;;;24.10;66.30;;;;;;5044101;28;20447;-47
2022/09/15 02:43:25;;;;;;;2.50;2.30;;;24.00;66.40;;;;;;5043726;28;20462;-50
2022/09/15 02:45:51;;;;;;;3.40;1.63;;;23.90;66.70;;;;;;5048705;28;20451;-47
2022/09/15 02:48:17;;;;;;;2.37;1.93;;;23.90;67.00;;;;;;5038075;28;20197;-48
2022/09/15 02:50:43;;;;;;;1.57;1.47;;;23.90;66.90;;;;;;5041594;28;20450;-51
2022/09/15 02:53:08;;;;;;;4.33;2.07;;;23.90;67.00;;;;;;5039878;28;20435;-47
2022/09/15 02:55:34;;;;;;;2.20;1.80;;;23.80;66.50;;;;;;5044199;28;20679;-48
2022/09/15 02:58:00;;;;;;;4.00;1.67;;;23.90;66.40;;;;;;5048552;28;20200;-48
2022/09/15 03:00:27;;;;;;;2.17;1.53;;;23.90;66.30;;;;;;5044459;28;20694;-47
2022/09/15 03:02:53;;;;;;;2.67;1.80;;;23.90;66.10;;;;;;5037022;28;20243;-49
2022/09/15 03:05:21;;;;;;;3.17;1.50;;;23.90;65.90;;;;;;5042762;28;20882;-48
2022/09/15 03:07:47;;;;;;;2.23;1.53;;;23.90;66.10;;;;;;5044317;28;20467;-48
2022/09/15 03:10:13;;;;;;;2.07;1.40;;;23.90;66.20;;;;;;5048194;28;20490;-47
2022/09/15 03:12:44;;;;;;;1.80;1.70;;;23.90;66.30;;;;;;5048016;28;20854;-50
2022/09/15 03:15:12;;;;;;;3.00;2.07;;;23.90;66.20;;;;;;5049328;28;20435;-47
2022/09/15 03:17:43;;;;;;;1.50;1.40;;;24.00;66.10;;;;;;5045887;28;20502;-47
2022/09/15 03:20:11;;;;;;;4.03;1.60;;;24.00;66.00;;;;;;5047550;28;20542;-46
2022/09/15 03:22:37;;;;;;;2.43;1.60;;;24.00;66.00;;;;;;5048208;28;20452;-47
2022/09/15 03:25:06;;;;;;;1.87;1.77;;;24.10;66.00;;;;;;5048699;28;20529;-49
2022/09/15 03:27:33;;;;;;;2.13;1.83;;;24.10;65.90;;;;;;5049959;28;20256;-47
2022/09/15 03:29:59;;;;;;;1.80;1.60;;;24.10;66.00;;;;;;5037323;28;20465;-50
2022/09/15 03:32:25;;;;;;;2.70;1.73;;;24.00;65.70;;;;;;5045033;28;20468;-48
2022/09/15 03:34:50;;;;;;;2.80;1.43;;;24.00;65.50;;;;;;5039414;28;20557;-50
2022/09/15 03:37:16;;;;;;;2.10;1.63;;;23.90;65.50;;;;;;5040731;28;20537;-48
2022/09/15 03:39:42;;;;;;;1.50;1.40;;;23.90;65.60;;;;;;5041513;28;20255;-52
2022/09/15 03:42:07;;;;;;;2.07;1.63;;;23.80;65.40;;;;;;5047983;28;21143;-52
2022/09/15 03:44:34;;;;;;;3.03;1.60;;;23.70;65.70;;;;;;5045192;28;20674;-47
2022/09/15 03:47:00;;;;;;;1.63;1.47;;;23.70;65.70;;;;;;5049219;28;20734;-48
2022/09/15 03:49:26;;;;;;;2.30;1.63;;;23.60;66.10;;;;;;5049821;28;20466;-50
2022/09/15 03:51:51;;;;;;;2.63;1.60;;;23.50;66.40;;;;;;5043748;28;20237;-50
2022/09/15 03:54:18;;;;;;;4.00;1.57;;;23.50;67.00;;;;;;5051545;28;20562;-50
2022/09/15 03:56:47;;;;;;;2.73;1.50;;;23.50;66.00;;;;;;5043494;28;20201;-51
2022/09/15 03:59:14;;;;;;;4.10;1.80;;;23.30;66.80;;;;;;5045485;28;20506;-51
2022/09/15 04:01:39;;;;;;;1.80;1.40;;;23.40;66.70;;;;;;5049527;28;20958;-50
2022/09/15 04:04:05;;;;;;;2.00;1.70;;;23.40;66.60;;;;;;5037910;28;20439;-50
2022/09/15 04:06:31;;;;;;;4.30;1.70;;;23.50;66.50;;;;;;5057098;28;20204;-51
2022/09/15 04:08:58;;;;;;;1.90;1.60;;;23.50;66.30;;;;;;5046573;28;20440;-52
2022/09/15 04:11:24;;;;;;;2.40;1.70;;;23.40;66.20;;;;;;5044442;28;20202;-51
2022/09/15 04:13:51;;;;;;;2.47;1.57;;;23.50;66.20;;;;;;5055479;28;20426;-51
2022/09/15 04:16:19;;;;;;;2.50;1.80;;;23.50;66.00;;;;;;5051637;28;20566;-48
2022/09/15 04:18:45;;;;;;;3.20;1.70;;;23.50;66.40;;;;;;5051562;28;20581;-51
2022/09/15 04:21:13;;;;;;;1.83;1.73;;;23.40;66.50;;;;;;5047695;28;20534;-47
2022/09/15 04:23:40;;;;;;;1.53;1.30;;;23.30;66.40;;;;;;5039408;28;20239;-51
2022/09/15 04:26:10;;;;;;;2.17;1.50;;;23.40;66.30;;;;;;5035685;28;20570;-49
2022/09/15 04:28:37;;;;;;;4.10;2.20;;;23.40;67.20;;;;;;5052867;28;20443;-50
2022/09/15 04:31:08;;;;;;;1.27;1.17;;;23.50;66.70;;;;;;5049790;28;20435;-47
2022/09/15 04:33:34;;;;;;;2.10;1.73;;;23.50;66.80;;;;;;5043473;28;20440;-48
2022/09/15 04:36:11;;;;;;;4.67;1.43;;;23.40;65.90;;;;;;5044890;28;20443;-48
2022/09/15 04:38:36;;;;;;;2.10;1.50;;;23.20;66.90;;;;;;5043581;28;20557;-51
2022/09/15 04:41:03;;;;;;;1.93;1.40;;;23.00;67.20;;;;;;5044269;28;20475;-50
2022/09/15 04:43:29;;;;;;;1.53;1.33;;;23.00;68.10;;;;;;5046803;28;20200;-47
2022/09/15 04:45:55;;;;;;;3.30;1.60;;;22.90;68.40;;;;;;5045165;28;20830;-52
2022/09/15 04:48:22;;;;;;;3.30;1.80;;;22.80;68.70;;;;;;5049042;28;20451;-51
2022/09/15 04:50:47;;;;;;;5.00;1.80;;;22.90;68.90;;;;;;5041026;28;21963;-47
2022/09/15 04:53:13;;;;;;;3.20;1.40;;;22.80;69.00;;;;;;5046544;28;20518;-49
2022/09/15 04:55:39;;;;;;;1.90;1.60;;;22.70;69.10;;;;;;5035635;28;20294;-47
2022/09/15 04:58:05;;;;;;;3.33;2.23;;;22.80;69.10;;;;;;5044103;28;20196;-48
2022/09/15 05:00:33;;;;;;;2.60;1.70;;;23.00;68.60;;;;;;5048736;28;20219;-50
2022/09/15 05:02:59;;;;;;;2.20;1.57;;;23.00;68.30;;;;;;5037200;28;20201;-47
2022/09/15 05:05:25;;;;;;;2.40;1.63;;;23.10;67.90;;;;;;5045201;28;20902;-49
2022/09/15 05:07:51;;;;;;;2.13;1.50;;;23.10;67.80;;;;;;5044418;28;20185;-49
2022/09/15 05:10:18;;;;;;;1.97;1.50;;;22.90;69.10;;;;;;5042191;28;20804;-51
2022/09/15 05:12:43;;;;;;;3.03;1.90;;;22.80;69.20;;;;;;5038602;28;20957;-47
2022/09/15 05:15:09;;;;;;;1.87;1.47;;;22.80;69.70;;;;;;5041188;28;20522;-51
2022/09/15 05:17:35;;;;;;;5.83;1.87;;;22.80;68.80;;;;;;5045308;28;20196;-50
2022/09/15 05:20:01;;;;;;;5.00;2.13;;;22.60;69.60;;;;;;5043395;28;21006;-50
2022/09/15 05:22:27;;;;;;;4.50;2.00;;;22.50;70.60;;;;;;5040545;28;20203;-50
2022/09/15 05:24:53;;;;;;;1.70;1.60;;;22.40;70.60;;;;;;5041777;28;20478;-48
2022/09/15 05:27:19;;;;;;;3.40;1.83;;;22.40;70.30;;;;;;5039983;28;20229;-48
2022/09/15 05:29:44;;;;;;;3.47;1.47;;;22.20;70.80;;;;;;5041665;28;20221;-52
2022/09/15 05:32:10;;;;;;;1.50;1.40;;;22.20;70.90;;;;;;5049095;28;20227;-51
2022/09/15 05:34:36;;;;;;;1.80;1.50;;;22.30;70.80;;;;;;5047274;28;20271;-47
2022/09/15 05:37:02;;;;;;;2.20;2.00;;;22.30;71.70;;;;;;5040605;28;20188;-51
2022/09/15 05:39:27;;;;;;;2.77;1.70;;;22.30;70.90;;;;;;5046675;28;20227;-46
2022/09/15 05:41:53;;;;;;;2.07;1.40;;;22.20;70.70;;;;;;5035425;28;20455;-46
2022/09/15 05:44:20;;;;;;;2.33;1.53;;;22.10;71.30;;;;;;5045153;28;20195;-51
2022/09/15 05:46:46;;;;;;;4.20;1.63;;;21.90;72.50;;;;;;5046761;28;20197;-49
2022/09/15 05:49:12;;;;;;;1.90;1.27;;;22.10;72.90;;;;;;5043114;28;20953;-46
2022/09/15 05:51:37;;;;;;;1.63;1.47;;;22.20;72.40;;;;;;5046342;28;20443;-51
2022/09/15 05:54:03;;;;;;;2.17;1.30;;;22.40;71.90;;;;;;5046767;28;20189;-48
2022/09/15 05:56:28;;;;;;;1.60;1.50;;;22.30;71.60;;;;;;5044507;28;20204;-46
2022/09/15 05:58:54;;;;;;;3.07;1.17;;;22.40;71.60;;;;;;5036196;28;20217;-50
2022/09/15 06:01:25;;;;;;;1.70;1.60;;;22.50;71.00;;;;;;5043740;28;20225;-47
2022/09/15 06:03:52;;;;;;;2.23;1.50;;;22.50;70.80;;;;;;5047419;28;20263;-50
2022/09/15 06:06:18;;;;;;;2.03;1.50;;;22.40;70.90;;;;;;5047997;28;20438;-46
2022/09/15 06:08:47;;;;;;;2.50;1.20;;;22.30;71.00;;;;;;5050657;28;20419;-51
2022/09/15 06:11:19;;;;;;;3.37;1.33;;;22.50;71.00;;;;;;5047346;28;20439;-47
2022/09/15 06:13:45;;;;;;;2.63;1.60;;;22.50;70.70;;;;;;5048217;28;20605;-47
2022/09/15 06:16:22;;;;;;;3.57;1.50;;;22.60;70.20;;;;;;5042889;28;20443;-52
2022/09/15 06:18:50;;;;;;;1.43;1.33;;;22.70;69.80;;;;;;5046331;28;20481;-50
2022/09/15 06:21:19;;;;;;;1.87;1.30;;;22.90;69.60;;;;;;5043521;28;20577;-48
2022/09/15 06:23:45;;;;;;;1.70;1.40;;;22.80;69.30;;;;;;5041686;28;20470;-48
2022/09/15 06:26:10;;;;;;;2.67;1.40;;;22.80;69.50;;;;;;5041967;28;20479;-47
2022/09/15 06:28:38;;;;;;;2.53;1.10;;;22.90;69.30;;;;;;5046008;28;20486;-52
2022/09/15 06:31:08;;;;;;;2.27;1.40;;;23.00;69.10;;;;;;5043837;28;20235;-51
2022/09/15 06:33:34;;;;;;;3.90;1.70;;;23.00;69.10;;;;;;5040274;28;20442;-52
2022/09/15 06:36:01;;;;;;;2.30;1.17;;;23.20;68.80;;;;;;5046406;28;20435;-52
2022/09/15 06:38:26;;;;;;;4.63;1.73;;;23.30;68.70;;;;;;5045225;28;20200;-50
2022/09/15 06:40:58;;;;;;;2.30;1.60;;;23.20;68.80;;;;;;5044770;28;20958;-51
2022/09/15 06:43:24;;;;;;;1.80;1.40;;;23.20;69.20;;;;;;5035704;28;20189;-51
2022/09/15 06:45:51;;;;;;;2.70;2.00;;;23.20;70.00;;;;;;5036952;28;20791;-50
2022/09/15 06:48:17;;;;;;;2.77;1.70;;;23.10;70.20;;;;;;5040997;28;20189;-52
2022/09/15 06:50:42;;;;;;;3.23;1.30;;;22.90;71.80;;;;;;5043732;28;20500;-49
2022/09/15 06:53:08;;;;;;;3.17;1.47;;;22.70;72.50;;;;;;5043601;28;20446;-47
2022/09/15 06:55:33;;;;;;;3.63;1.70;;;22.70;72.90;;;;;;5031446;28;20280;-49
2022/09/15 06:57:59;;;;;;;10.03;2.00;;;22.80;72.90;;;;;;5044356;28;20193;-50
2022/09/15 07:00:25;;;;;;;4.93;1.60;;;22.90;72.60;;;;;;5042554;28;20224;-51
2022/09/15 07:02:50;;;;;;;2.40;1.60;;;23.10;71.90;;;;;;5050189;28;20639;-52
2022/09/15 07:05:16;;;;;;;2.50;1.50;;;23.10;72.20;;;;;;5043193;28;20259;-51
2022/09/15 07:07:42;;;;;;;2.00;1.80;;;23.10;72.30;;;;;;5042948;28;20196;-48
2022/09/15 07:10:08;;;;;;;1.87;1.77;;;23.10;72.20;;;;;;5047247;28;20442;-50
2022/09/15 07:12:33;;;;;;;6.20;2.53;;;23.20;72.40;;;;;;5043238;28;20319;-51
2022/09/15 07:14:59;;;;;;;8.83;1.80;;;23.20;72.30;;;;;;5039861;28;20201;-49
2022/09/15 07:17:25;;;;;;;3.60;1.53;;;23.20;72.20;;;;;;5054233;28;20188;-47
2022/09/15 07:19:51;;;;;;;4.50;1.30;;;23.20;72.40;;;;;;5049104;28;20700;-48
2022/09/15 07:22:17;;;;;;;1.70;1.60;;;23.20;72.40;;;;;;5049259;28;20451;-51
2022/09/15 07:24:42;;;;;;;3.63;2.00;;;23.20;72.40;;;;;;5037988;28;20543;-51
2022/09/15 07:27:08;;;;;;;5.23;1.83;;;23.00;72.40;;;;;;5038289;28;20279;-49
2022/09/15 07:29:34;;;;;;;2.23;1.70;;;23.10;72.70;;;;;;5050779;28;20205;-48
2022/09/15 07:32:00;;;;;;;2.33;1.60;;;23.20;72.80;;;;;;5040644;28;20189;-47
2022/09/15 07:34:25;;;;;;;3.17;1.73;;;23.20;72.90;;;;;;5042774;28;20200;-51
2022/09/15 07:36:51;;;;;;;1.60;1.50;;;23.20;72.70;;;;;;5038698;28;20223;-51
2022/09/15 07:39:16;;;;;;;1.70;1.60;;;23.10;72.70;;;;;;5052473;28;20225;-47
2022/09/15 07:41:42;;;;;;;1.70;1.50;;;23.20;72.90;;;;;;5046782;28;20204;-50
2022/09/15 07:44:10;;;;;;;3.60;1.70;;;23.20;72.90;;;;;;5035724;28;20672;-48
2022/09/15 07:46:36;;;;;;;2.40;1.70;;;23.30;73.00;;;;;;5045459;28;20200;-49
2022/09/15 07:49:02;;;;;;;1.87;1.70;;;23.30;73.00;;;;;;5050011;28;20450;-48
2022/09/15 07:51:27;;;;;;;4.30;1.73;;;23.40;72.70;;;;;;5037511;28;20189;-48
2022/09/15 07:53:53;;;;;;;3.40;1.87;;;23.40;72.70;;;;;;5060681;28;20193;-50
2022/09/15 07:56:20;;;;;;;2.07;1.43;;;23.30;73.30;;;;;;5053623;28;20279;-49
2022/09/15 07:58:46;;;;;;;6.47;1.80;;;23.30;73.90;;;;;;5049152;28;20287;-48
2022/09/15 08:01:15;;;;;;;2.70;1.60;;;23.30;74.00;;;;;;5044756;28;20459;-51
2022/09/15 08:03:47;;;;;;;4.53;1.70;;;23.40;73.50;;;;;;5046829;28;20926;-49
2022/09/15 08:06:13;;;;;;;2.83;1.20;;;23.40;73.00;;;;;;5054371;28;20446;-48
2022/09/15 08:08:40;;;;;;;1.23;1.13;;;23.40;72.90;;;;;;5047997;28;20419;-48
2022/09/15 08:11:13;;;;;;;2.30;1.10;;;23.50;73.00;;;;;;5047844;28;20703;-48
2022/09/15 08:13:39;;;;;;;1.30;1.20;;;23.50;73.00;;;;;;5049470;28;20877;-48
2022/09/15 08:16:10;;;;;;;1.30;1.20;;;23.50;72.50;;;;;;5043962;28;20450;-49
2022/09/15 08:18:37;;;;;;;1.97;1.40;;;23.50;72.60;;;;;;5050790;28;20228;-50
2022/09/15 08:21:06;;;;;;;2.57;1.10;;;23.40;72.40;;;;;;5041090;28;20885;-49
2022/09/15 08:23:32;;;;;;;1.30;1.20;;;23.30;72.60;;;;;;5030093;28;21291;-48
2022/09/15 08:25:58;;;;;;;1.40;1.30;;;23.30;72.80;;;;;;5040472;28;20511;-49
2022/09/15 08:28:25;;;;;;;3.10;1.40;;;23.40;72.80;;;;;;5042162;28;20451;-48
2022/09/15 08:30:58;;;;;;;2.57;1.50;;;23.40;72.70;;;;;;5048191;28;20232;-48
2022/09/15 08:33:24;;;;;;;1.40;1.20;;;23.30;72.30;;;;;;5052560;28;20434;-48
2022/09/15 08:35:50;;;;;;;1.40;1.30;;;23.40;72.50;;;;;;5050171;28;20447;-51
2022/09/15 08:38:15;;;;;;;1.90;1.10;;;23.40;72.50;;;;;;5049284;28;20279;-48
2022/09/15 08:40:44;;;;;;;2.47;1.13;;;23.30;72.30;;;;;;5048911;28;20224;-48
2022/09/15 08:43:22;;;;;;;2.03;1.10;;;23.20;72.40;;;;;;5044868;28;20276;-47
2022/09/15 08:46:17;;;;;;;2.23;1.30;;;23.20;72.70;;;;;;5038790;28;20482;-48
2022/09/15 08:48:59;;;;;;;2.37;1.10;;;23.20;72.80;;;;;;5045649;28;20443;-51
2022/09/15 08:51:31;;;;;;;1.20;1.10;;;23.30;72.80;;;;;;5050059;28;20458;-52
2022/09/15 08:54:06;;;;;;;2.27;1.30;;;23.20;73.10;;;;;;5051010;28;20435;-48
2022/09/15 08:56:33;;;;;;;3.40;1.40;;;23.20;73.30;;;;;;5048645;28;20848;-49
2022/09/15 08:58:59;;;;;;;1.53;1.30;;;23.30;73.20;;;;;;5045455;28;21011;-49
2022/09/15 09:02:12;;;;;;;1.80;1.50;;;23.40;73.00;;;;;;5037543;28;20531;-49
2022/09/15 09:05:30;;;;;;;2.43;1.37;;;23.50;72.90;;;;;;5045360;28;20551;-48
2022/09/15 09:08:08;;;;;;;1.53;1.30;;;23.60;72.90;;;;;;5011810;28;20540;-48
2022/09/15 09:10:55;;;;;;;3.47;1.77;;;23.60;72.80;;;;;;5049350;28;21021;-48
2022/09/15 09:13:45;;;;;;;1.40;1.27;;;23.70;72.50;;;;;;5039107;28;20459;-47
2022/09/15 09:16:35;;;;;;;2.07;1.40;;;23.70;72.20;;;;;;5033230;28;20447;-50
2022/09/15 09:19:18;;;;;;;1.50;1.40;;;23.70;72.30;;;;;;5032876;28;20464;-49
2022/09/15 09:21:52;;;;;;;2.43;1.70;;;23.80;72.60;;;;;;5043268;28;20951;-51
2022/09/15 09:24:38;;;;;;;1.40;1.30;;;23.80;72.60;;;;;;5038514;28;20993;-50
2022/09/15 09:27:04;;;;;;;4.40;1.40;;;23.70;72.20;;;;;;5036042;28;20447;-50
2022/09/15 09:29:35;;;;;;;1.47;1.33;;;23.70;72.30;;;;;;5049971;28;20438;-51
2022/09/15 09:32:02;;;;;;;1.63;1.40;;;23.70;72.40;;;;;;5046547;28;20436;-49
2022/09/15 09:34:32;;;;;;;2.80;1.33;;;23.60;72.60;;;;;;5045135;28;20558;-50
2022/09/15 09:37:00;;;;;;;2.30;1.50;;;23.70;72.40;;;;;;5043823;28;20476;-49
2022/09/15 09:39:27;;;;;;;9.80;1.57;;;23.80;72.20;;;;;;5038073;28;20498;-49
2022/09/15 09:41:54;;;;;;;4.10;1.53;;;23.70;71.80;;;;;;5038555;28;20851;-51
2022/09/15 09:44:20;;;;;;;1.33;1.23;;;23.70;72.60;;;;;;5044928;28;20443;-49
2022/09/15 09:46:46;;;;;;;2.13;1.10;;;23.70;72.90;;;;;;5039186;28;20454;-48
2022/09/15 09:49:22;;;;;;;2.07;1.07;;;23.80;72.40;;;;;;5043167;28;20496;-50
2022/09/15 09:51:53;;;;;;;1.87;1.17;;;23.70;72.30;;;;;;5041884;28;20814;-48
2022/09/15 09:54:23;;;;;;;1.50;1.37;;;23.60;72.60;;;;;;5046470;28;20462;-47
2022/09/15 09:56:51;;;;;;;1.43;1.10;;;23.50;73.10;;;;;;5046406;28;20542;-46
2022/09/15 09:59:31;;;;;;;1.13;0.73;;;23.50;73.30;;;;;;5040626;28;20487;-48
2022/09/15 10:02:12;;;;;;;1.47;1.03;;;23.20;73.90;;;;;;5038504;28;20937;-46
2022/09/15 10:04:50;;;;;;;2.20;0.93;;;23.20;74.20;;;;;;5047035;28;20446;-47
2022/09/15 10:07:20;;;;;;;1.30;1.10;;;23.20;74.20;;;;;;5049884;28;20493;-46
2022/09/15 10:10:00;;;;;;;1.83;0.90;;;23.20;74.80;;;;;;5043807;28;20445;-48
2022/09/15 10:12:25;;;;;;;1.13;0.80;;;23.20;74.70;;;;;;5044840;28;20497;-47
2022/09/15 10:14:55;;;;;;;0.97;0.67;;;23.00;73.70;;;;;;5044832;28;20451;-46
2022/09/15 10:17:24;;;;;;;1.13;0.83;;;22.80;74.50;;;;;;5041602;28;20193;-46
2022/09/15 10:19:55;;;;;;;2.90;0.67;;;22.80;74.40;;;;;;5045942;28;22112;-46
2022/09/15 10:22:20;;;;;;;3.60;0.63;;;22.70;74.00;;;;;;5038171;28;20451;-47
2022/09/15 10:24:48;;;;;;;1.53;1.23;;;22.60;74.30;;;;;;5042698;28;20538;-48
2022/09/15 10:27:33;;;;;;;0.70;0.67;;;22.50;74.20;;;;;;5041290;28;20183;-48
2022/09/15 10:30:16;;;;;;;2.47;1.10;;;22.50;74.20;;;;;;5044408;28;20886;-49
2022/09/15 10:32:43;;;;;;;1.53;0.90;;;22.40;74.30;;;;;;5034389;28;20479;-47
2022/09/15 10:35:14;;;;;;;1.63;1.50;;;22.40;74.10;;;;;;5034796;28;20439;-47
2022/09/15 10:37:39;;;;;;;1.70;1.60;;;22.30;72.10;;;;;;5043662;28;20451;-50
2022/09/15 10:40:28;;;;;;;1.60;1.50;;;22.20;72.10;;;;;;5040766;28;20491;-48
2022/09/15 10:43:21;;;;;;;1.80;1.70;;;22.30;72.30;;;;;;5037229;28;20209;-48
2022/09/15 10:45:48;;;;;;;1.80;1.70;;;22.20;71.80;;;;;;5035916;28;20447;-47
2022/09/15 10:48:33;;;;;;;2.23;1.77;;;22.10;71.80;;;;;;5039468;28;20448;-47
2022/09/15 10:51:14;;;;;;;1.77;1.67;;;21.90;72.50;;;;;;5036100;28;20947;-46
2022/09/15 10:53:40;;;;;;;2.20;1.63;;;21.80;72.70;;;;;;5043330;28;20491;-48
2022/09/15 10:56:16;;;;;;;6.03;1.87;;;21.70;73.40;;;;;;5039934;28;20463;-47
2022/09/15 10:58:59;;;;;;;2.10;1.90;;;21.60;74.70;;;;;;5047201;28;20217;-47
2022/09/15 11:01:31;;;;;;;2.40;1.63;;;21.70;74.30;;;;;;5034474;28;20452;-49
2022/09/15 11:04:08;;;;;;;3.63;2.30;;;21.80;73.50;;;;;;5044930;28;20957;-48
2022/09/15 11:06:42;;;;;;;2.10;2.00;;;21.90;71.90;;;;;;5042966;28;20450;-46
2022/09/15 11:09:19;;;;;;;2.20;2.07;;;21.70;71.40;;;;;;5049487;28;20504;-46
2022/09/15 11:12:09;;;;;;;7.00;2.40;;;21.60;71.10;;;;;;5046987;28;20542;-48
2022/09/15 11:14:59;;;;;;;2.40;2.20;;;21.40;70.50;;;;;;5034044;28;20793;-49
2022/09/15 11:17:34;;;;;;;2.10;1.70;;;21.30;72.00;;;;;;5042830;28;20442;-47
2022/09/15 11:20:28;;;;;;;3.00;2.73;;;21.30;72.20;;;;;;5047116;28;20520;-46
2022/09/15 11:23:05;;;;;;;2.80;2.27;;;21.40;72.20;;;;;;5040842;28;20500;-46
2022/09/15 11:25:35;;;;;;;3.00;2.60;;;21.40;71.80;;;;;;5047061;28;20510;-47
2022/09/15 11:28:12;;;;;;;2.80;2.60;;;21.40;72.40;;;;;;5050515;28;20537;-46
2022/09/15 11:30:52;;;;;;;2.20;2.10;;;21.50;72.30;;;;;;5046049;28;20493;-46
2022/09/15 11:33:31;;;;;;;2.40;2.20;;;21.50;71.80;;;;;;5038940;28;20444;-46
2022/09/15 11:36:04;;;;;;;1.87;1.77;;;21.40;71.80;;;;;;5048056;28;20792;-47
2022/09/15 11:38:29;;;;;;;2.47;2.27;;;21.40;73.20;;;;;;5051786;28;20447;-46
2022/09/15 11:41:14;;;;;;;2.80;2.60;;;21.60;72.90;;;;;;5042378;28;20447;-46
2022/09/15 11:43:50;;;;;;;2.63;2.00;;;21.60;71.80;;;;;;5039554;28;20675;-47
2022/09/15 11:46:24;;;;;;;4.17;2.40;;;21.60;71.60;;;;;;5049915;28;20434;-50
2022/09/15 11:48:55;;;;;;;2.97;2.77;;;21.70;71.10;;;;;;5039801;28;20481;-49
2022/09/15 11:51:23;;;;;;;4.23;2.97;;;21.70;71.20;;;;;;5041971;28;20446;-50
2022/09/15 11:54:04;;;;;;;4.67;3.00;;;21.80;71.10;;;;;;5052028;28;20431;-51
2022/09/15 11:56:39;;;;;;;2.37;2.03;;;21.60;70.20;;;;;;5041015;28;20486;-48
2022/09/15 11:59:35;;;;;;;2.93;2.20;;;21.70;71.10;;;;;;5052403;28;21276;-46
2022/09/15 12:02:42;;;;;;;4.83;2.57;;;21.70;69.90;;;;;;5045481;28;20517;-47
2022/09/15 12:05:42;;;;;;;4.10;2.30;;;21.70;70.00;;;;;;5047910;28;20494;-52
2022/09/15 12:08:16;;;;;;;2.10;2.00;;;21.80;69.30;;;;;;5046839;28;20450;-47
2022/09/15 12:10:46;;;;;;;2.13;1.93;;;21.80;68.10;;;;;;5054042;28;20517;-51
2022/09/15 12:13:18;;;;;;;2.90;2.60;;;21.60;68.50;;;;;;5050625;28;20439;-49
2022/09/15 12:15:45;;;;;;;2.37;2.17;;;21.70;70.10;;;;;;5047133;28;20440;-49
2022/09/15 12:18:20;;;;;;;3.70;2.77;;;21.90;69.50;;;;;;5049221;28;20435;-48
2022/09/15 12:21:07;;;;;;;5.50;2.43;;;21.90;69.70;;;;;;5034477;28;20846;-48
2022/09/15 12:23:40;;;;;;;4.10;2.53;;;22.00;69.20;;;;;;5042903;28;20443;-51
2022/09/15 12:26:19;;;;;;;2.77;2.17;;;22.00;68.80;;;;;;5038237;28;20478;-47
2022/09/15 12:29:02;;;;;;;3.30;2.73;;;22.20;68.10;;;;;;5044249;28;20465;-49
2022/09/15 12:31:31;;;;;;;3.43;2.67;;;22.20;66.80;;;;;;5039395;28;20501;-49
2022/09/15 12:34:02;;;;;;;3.00;2.63;;;22.20;66.70;;;;;;5051161;28;20475;-49
2022/09/15 12:37:06;;;;;;;2.50;2.20;;;22.10;66.70;;;;;;5038244;28;20451;-51
2022/09/15 12:39:47;;;;;;;3.83;2.90;;;22.10;69.30;;;;;;5005690;28;20487;-50
2022/09/15 12:42:22;;;;;;;8.60;3.10;;;22.40;68.00;;;;;;5046350;28;20427;-47
2022/09/15 12:45:01;;;;;;;3.10;2.77;;;22.50;65.40;;;;;;5042158;28;20481;-48
2022/09/15 12:47:30;;;;;;;3.07;2.63;;;22.50;64.70;;;;;;5036362;28;20451;-51
2022/09/15 12:50:04;;;;;;;4.40;3.50;;;22.50;65.30;;;;;;5045482;28;20447;-48
2022/09/15 12:52:30;;;;;;;4.13;2.97;;;22.50;65.20;;;;;;5049853;28;20435;-51
2022/09/15 12:55:02;;;;;;;3.23;3.03;;;22.30;66.70;;;;;;5048876;28;22430;-49
2022/09/15 12:57:33;;;;;;;4.20;3.70;;;22.30;66.00;;;;;;5045301;28;20447;-48
2022/09/15 13:00:27;;;;;;;4.37;3.90;;;22.20;65.70;;;;;;5040698;28;20480;-51
2022/09/15 13:02:54;;;;;;;5.10;4.10;;;22.20;66.80;;;;;;5038149;28;20470;-53
2022/09/15 13:05:41;;;;;;;5.37;4.50;;;22.30;67.80;;;;;;5052690;28;21026;-48
2022/09/15 13:08:14;;;;;;;4.63;4.20;;;22.20;67.30;;;;;;5043169;28;20508;-53
2022/09/15 13:10:57;;;;;;;5.53;4.10;;;22.30;68.50;;;;;;5043002;28;21042;-50
2022/09/15 13:13:33;;;;;;;4.50;4.10;;;22.40;67.90;;;;;;5045477;28;20451;-49